Wetterdaten: Woche 08.02.16 - 14.02.16 (KW6)
Datum Zeit Temp. Aussen Temp. o. S. +5cm Feuchte Auss BlattFeu 1 Luftdruck Regen Sonnenschein Regendauer Solar Windben Empfang
08.02.2016 00:00 7,2 C 7,2 C 5,6 C 77 % 0 lf 999,0 hPa 0,0 l/m 0,00 h 0,00 h 0 W/m 31,8 km/h (5 Bft) 93,75 %
08.02.2016 01:00 7,5 C 7,8 C 6,1 C 76 % 0 lf 997,5 hPa 0,0 l/m 0,00 h 0,00 h 0 W/m 32,5 km/h (5 Bft) 96,61 %
08.02.2016 02:00 8,1 C 8,1 C 6,6 C 76 % 0 lf 996,3 hPa 0,0 l/m 0,00 h 0,33 h 0 W/m 37,7 km/h (5 Bft) 98,42 %
08.02.2016 03:00 8,5 C 8,4 C 6,7 C 79 % 0 lf 995,1 hPa 0,2 l/m 0,00 h 0,90 h 0 W/m 39,4 km/h (6 Bft) 93,32 %
08.02.2016 04:00 8,7 C 8,8 C 7,2 C 81 % 0 lf 993,7 hPa 0,0 l/m 0,00 h 0,23 h 0 W/m 39,0 km/h (6 Bft) 96,80 %
08.02.2016 05:00 8,3 C 7,1 C 5,8 C 87 % 12 lf 992,4 hPa 1,6 l/m 0,00 h 1,00 h 0 W/m 35,2 km/h (5 Bft) 97,58 %
08.02.2016 06:00 8,3 C 7,7 C 6,2 C 91 % 9 lf 991,0 hPa 0,0 l/m 0,00 h 0,97 h 0 W/m 36,7 km/h (5 Bft) 95,30 %
08.02.2016 07:00 8,9 C 7,7 C 6,3 C 89 % 15 lf 990,8 hPa 1,4 l/m 0,00 h 0,50 h 0 W/m 42,9 km/h (6 Bft) 95,86 %
08.02.2016 08:00 8,6 C 7,5 C 6,1 C 90 % 15 lf 990,7 hPa 0,8 l/m 0,00 h 0,83 h 8 W/m 42,6 km/h (6 Bft) 96,29 %
08.02.2016 09:00 8,2 C 7,2 C 5,9 C 90 % 15 lf 990,8 hPa 0,2 l/m 0,00 h 0,70 h 27 W/m 37,7 km/h (5 Bft) 94,70 %
08.02.2016 10:00 8,6 C 8,4 C 6,6 C 90 % 4 lf 990,6 hPa 0,0 l/m 0,20 h 0,50 h 113 W/m 37,7 km/h (5 Bft) 97,77 %
08.02.2016 11:00 9,4 C 10,6 C 7,7 C 84 % 0 lf 990,6 hPa 0,0 l/m 0,20 h 0,23 h 141 W/m 34,7 km/h (5 Bft) 96,07 %
08.02.2016 12:00 9,7 C 10,4 C 8,1 C 79 % 3 lf 990,2 hPa 0,8 l/m 0,13 h 0,27 h 121 W/m 38,9 km/h (6 Bft) 94,19 %
08.02.2016 13:00 7,5 C 9,2 C 5,4 C 88 % 14 lf 990,7 hPa 0,4 l/m 0,50 h 0,20 h 245 W/m 38,4 km/h (5 Bft) 97,58 %
08.02.2016 14:00 9,1 C 10,3 C 6,4 C 79 % 1 lf 990,3 hPa 0,0 l/m 0,33 h 0,07 h 142 W/m 39,3 km/h (6 Bft) 95,96 %
08.02.2016 15:00 7,6 C 8,9 C 4,8 C 84 % 15 lf 990,9 hPa 1,0 l/m 0,67 h 0,17 h 178 W/m 37,8 km/h (5 Bft) 94,97 %
08.02.2016 16:00 8,4 C 8,8 C 5,5 C 78 % 2 lf 991,4 hPa 0,0 l/m 0,33 h 0,00 h 67 W/m 51,9 km/h (7 Bft) 96,69 %
08.02.2016 17:00 8,4 C 8,5 C 6,6 C 75 % 0 lf 991,6 hPa 0,0 l/m 0,00 h 0,20 h 11 W/m 48,4 km/h (6 Bft) 96,23 %
08.02.2016 18:00 7,9 C 7,7 C 5,8 C 78 % 8 lf 992,2 hPa 0,2 l/m 0,00 h 0,83 h 0 W/m 53,5 km/h (7 Bft) 96,58 %
08.02.2016 19:00 8,1 C 8,1 C 6,2 C 77 % 7 lf 992,5 hPa 0,0 l/m 0,00 h 0,97 h 0 W/m 60,0 km/h (7 Bft) 95,33 %
08.02.2016 20:00 7,9 C 7,2 C 5,5 C 79 % 11 lf 993,1 hPa 0,4 l/m 0,00 h 1,00 h 0 W/m 57,8 km/h (7 Bft) 95,67 %
08.02.2016 21:00 7,1 C 6,1 C 4,6 C 85 % 15 lf 993,7 hPa 0,4 l/m 0,00 h 0,37 h 0 W/m 56,6 km/h (7 Bft) 97,41 %
08.02.2016 22:00 7,9 C 7,9 C 5,3 C 79 % 2 lf 994,2 hPa 0,0 l/m 0,00 h 0,20 h 0 W/m 58,6 km/h (7 Bft) 95,75 %
08.02.2016 23:00 8,1 C 8,3 C 6,0 C 76 % 0 lf 995,0 hPa 0,0 l/m 0,00 h 0,03 h 0 W/m 59,3 km/h (7 Bft) 97,43 %
09.02.2016 00:00 7,9 C 8,2 C 6,2 C 76 % 0 lf 995,8 hPa 0,0 l/m 0,00 h 0,00 h 0 W/m 57,0 km/h (7 Bft) 90,62 %
09.02.2016 01:00 7,4 C 7,3 C 5,6 C 76 % 0 lf 996,3 hPa 0,0 l/m 0,00 h 0,00 h 0 W/m 54,5 km/h (7 Bft) 95,86 %
09.02.2016 02:00 7,2 C 7,2 C 5,6 C 78 % 3 lf 996,9 hPa 0,0 l/m 0,00 h 0,50 h 0 W/m 48,5 km/h (6 Bft) 97,28 %
09.02.2016 03:00 7,3 C 7,5 C 5,8 C 76 % 0 lf 997,1 hPa 0,2 l/m 0,00 h 0,23 h 0 W/m 48,9 km/h (6 Bft) 94,93 %
09.02.2016 04:00 7,2 C 7,3 C 5,5 C 78 % 0 lf 996,9 hPa 0,0 l/m 0,00 h 0,07 h 0 W/m 39,2 km/h (6 Bft) 95,22 %
09.02.2016 05:00 6,5 C 5,4 C 4,3 C 86 % 14 lf 996,8 hPa 1,0 l/m 0,00 h 0,80 h 0 W/m 35,5 km/h (5 Bft) 98,23 %
09.02.2016 06:00 5,8 C 5,1 C 3,7 C 91 % 15 lf 995,7 hPa 0,0 l/m 0,00 h 0,60 h 0 W/m 26,5 km/h (4 Bft) 95,71 %
09.02.2016 07:00 6,1 C 5,7 C 3,8 C 88 % 12 lf 994,9 hPa 0,0 l/m 0,00 h 0,10 h 5 W/m 27,6 km/h (4 Bft) 95,72 %
09.02.2016 08:00 6,5 C 6,9 C 3,9 C 84 % 0 lf 993,7 hPa 0,0 l/m 0,00 h 0,00 h 22 W/m 23,4 km/h (4 Bft) 96,26 %
09.02.2016 09:00 6,8 C 7,2 C 4,4 C 83 % 0 lf 992,2 hPa 0,0 l/m 0,00 h 0,00 h 32 W/m 15,8 km/h (3 Bft) 94,39 %
09.02.2016 10:00 6,8 C 5,9 C 4,1 C 85 % 7 lf 990,8 hPa 1,2 l/m 0,00 h 0,87 h 22 W/m 13,7 km/h (3 Bft) 97,94 %
09.02.2016 11:00 5,9 C 5,0 C 3,9 C 91 % 15 lf 987,9 hPa 3,2 l/m 0,00 h 1,00 h 25 W/m 20,3 km/h (4 Bft) 96,23 %
09.02.2016 12:00 5,4 C 5,0 C 3,9 C 94 % 15 lf 984,4 hPa 4,2 l/m 0,00 h 1,00 h 18 W/m 25,2 km/h (4 Bft) 95,02 %
09.02.2016 13:00 5,7 C 6,0 C 4,6 C 96 % 15 lf 980,3 hPa 0,4 l/m 0,00 h 0,30 h 55 W/m 24,6 km/h (4 Bft) 95,45 %
09.02.2016 14:00 6,8 C 6,8 C 5,6 C 97 % 15 lf 977,0 hPa 0,6 l/m 0,00 h 0,97 h 58 W/m 24,5 km/h (4 Bft) 96,19 %
09.02.2016 15:00 7,9 C 7,9 C 6,4 C 97 % 15 lf 975,5 hPa 0,0 l/m 0,00 h 0,47 h 27 W/m 31,0 km/h (5 Bft) 97,15 %
09.02.2016 16:00 9,1 C 8,3 C 6,5 C 89 % 5 lf 975,4 hPa 0,0 l/m 0,33 h 0,13 h 63 W/m 39,2 km/h (6 Bft) 94,55 %
09.02.2016 17:00 6,2 C 5,3 C 3,8 C 89 % 7 lf 978,1 hPa 0,8 l/m 0,00 h 0,47 h 6 W/m 38,4 km/h (5 Bft) 95,87 %
09.02.2016 18:00 3,2 C 2,8 C 1,9 C 93 % 15 lf 981,3 hPa 0,8 l/m 0,00 h 1,00 h 0 W/m 31,7 km/h (5 Bft) 96,88 %
09.02.2016 19:00 2,1 C 1,9 C 1,0 C 95 % 15 lf 983,9 hPa 0,8 l/m 0,00 h 0,83 h 0 W/m 29,9 km/h (5 Bft) 95,89 %
09.02.2016 20:00 2,8 C 3,0 C 1,9 C 96 % 15 lf 985,6 hPa 0,4 l/m 0,00 h 0,20 h 0 W/m 28,0 km/h (4 Bft) 97,49 %
09.02.2016 21:00 3,5 C 3,3 C 2,2 C 97 % 15 lf 986,8 hPa 0,0 l/m 0,00 h 0,00 h 0 W/m 33,1 km/h (5 Bft) 95,12 %
09.02.2016 22:00 3,7 C 3,3 C 2,2 C 96 % 15 lf 988,0 hPa 0,0 l/m 0,00 h 0,00 h 0 W/m 29,9 km/h (5 Bft) 94,39 %
09.02.2016 23:00 3,5 C 3,2 C 1,7 C 95 % 14 lf 989,0 hPa 0,0 l/m 0,00 h 0,00 h 0 W/m 24,8 km/h (4 Bft) 97,51 %
10.02.2016 00:00 3,3 C 2,9 C 1,4 C 94 % 9 lf 989,7 hPa 0,0 l/m 0,00 h 0,00 h 0 W/m 22,0 km/h (4 Bft) 96,51 %
10.02.2016 01:00 3,2 C 2,8 C 1,1 C 92 % 2 lf 990,1 hPa 0,0 l/m 0,00 h 0,00 h 0 W/m 21,5 km/h (4 Bft) 93,68 %
10.02.2016 02:00 3,3 C 3,0 C 1,6 C 92 % 5 lf 990,1 hPa 0,4 l/m 0,00 h 0,43 h 0 W/m 23,3 km/h (4 Bft) 97,01 %
10.02.2016 03:00 3,2 C 2,9 C 1,7 C 93 % 15 lf 990,0 hPa 0,2 l/m 0,00 h 0,17 h 0 W/m 25,5 km/h (4 Bft) 96,00 %
10.02.2016 04:00 3,4 C 3,3 C 1,7 C 93 % 13 lf 989,8 hPa 0,0 l/m 0,00 h 0,20 h 0 W/m 28,7 km/h (4 Bft) 96,31 %
10.02.2016 05:00 3,5 C 3,1 C 1,7 C 92 % 15 lf 989,6 hPa 0,4 l/m 0,00 h 0,97 h 0 W/m 32,9 km/h (5 Bft) 95,01 %
10.02.2016 06:00 3,2 C 2,8 C 1,7 C 94 % 15 lf 989,6 hPa 0,6 l/m 0,00 h 1,00 h 0 W/m 28,2 km/h (4 Bft) 96,33 %
10.02.2016 07:00 3,2 C 2,8 C 1,7 C 95 % 15 lf 990,0 hPa 0,8 l/m 0,00 h 1,00 h 0 W/m 29,4 km/h (5 Bft) 95,52 %
10.02.2016 08:00 3,1 C 2,9 C 1,8 C 95 % 15 lf 990,6 hPa 0,2 l/m 0,00 h 0,83 h 11 W/m 31,3 km/h (5 Bft) 96,15 %
10.02.2016 09:00 3,4 C 3,4 C 2,2 C 95 % 15 lf 991,1 hPa 0,0 l/m 0,00 h 0,43 h 39 W/m 30,1 km/h (5 Bft) 97,73 %
10.02.2016 10:00 3,7 C 3,9 C 2,4 C 95 % 14 lf 991,6 hPa 0,0 l/m 0,00 h 0,50 h 86 W/m 31,9 km/h (5 Bft) 91,82 %
10.02.2016 11:00 4,0 C 4,3 C 3,1 C 94 % 9 lf 992,4 hPa 0,0 l/m 0,00 h 0,37 h 99 W/m 30,9 km/h (5 Bft) 98,22 %
10.02.2016 12:00 4,8 C 6,6 C 4,2 C 95 % 5 lf 992,8 hPa 0,0 l/m 0,40 h 0,17 h 188 W/m 25,7 km/h (4 Bft) 97,00 %
10.02.2016 13:00 5,6 C 7,3 C 4,7 C 93 % 0 lf 992,9 hPa 0,0 l/m 0,20 h 0,03 h 159 W/m 25,5 km/h (4 Bft) 94,88 %
10.02.2016 14:00 6,6 C 9,2 C 5,5 C 89 % 0 lf 993,2 hPa 0,0 l/m 0,27 h 0,07 h 166 W/m 28,0 km/h (4 Bft) 94,80 %
10.02.2016 15:00 6,2 C 6,5 C 4,8 C 89 % 1 lf 993,9 hPa 0,0 l/m 0,03 h 0,23 h 74 W/m 23,4 km/h (4 Bft) 98,02 %
10.02.2016 16:00 5,9 C 6,4 C 4,1 C 90 % 0 lf 994,4 hPa 0,0 l/m 0,63 h 0,00 h 88 W/m 23,4 km/h (4 Bft) 93,61 %
10.02.2016 17:00 5,7 C 5,3 C 3,5 C 90 % 11 lf 995,2 hPa 1,4 l/m 0,07 h 0,80 h 15 W/m 21,9 km/h (4 Bft) 97,86 %
10.02.2016 18:00 4,7 C 4,1 C 3,0 C 93 % 15 lf 996,6 hPa 1,0 l/m 0,00 h 0,83 h 0 W/m 20,8 km/h (4 Bft) 94,18 %
10.02.2016 19:00 4,2 C 3,9 C 2,7 C 95 % 15 lf 997,6 hPa 0,0 l/m 0,00 h 0,20 h 0 W/m 19,0 km/h (3 Bft) 95,80 %
10.02.2016 20:00 3,9 C 3,5 C 2,4 C 96 % 15 lf 998,4 hPa 0,0 l/m 0,00 h 0,33 h 0 W/m 19,1 km/h (3 Bft) 97,99 %
10.02.2016 21:00 3,6 C 3,3 C 2,2 C 96 % 15 lf 999,1 hPa 0,2 l/m 0,00 h 0,27 h 0 W/m 16,7 km/h (3 Bft) 96,88 %
10.02.2016 22:00 3,5 C 3,0 C 1,9 C 96 % 15 lf 999,8 hPa 0,0 l/m 0,00 h 0,00 h 0 W/m 12,4 km/h (3 Bft) 95,16 %
10.02.2016 23:00 3,4 C 3,5 C 2,4 C 97 % 15 lf 1000,5 hPa 0,0 l/m 0,00 h 0,03 h 0 W/m 13,3 km/h (3 Bft) 95,42 %
11.02.2016 00:00 3,7 C 3,5 C 2,2 C 97 % 15 lf 1001,0 hPa 0,0 l/m 0,00 h 0,03 h 0 W/m 15,1 km/h (3 Bft) 94,62 %
11.02.2016 01:00 3,2 C 2,8 C 1,7 C 97 % 15 lf 1001,8 hPa 0,0 l/m 0,00 h 0,17 h 0 W/m 13,9 km/h (3 Bft) 95,89 %
11.02.2016 02:00 3,2 C 3,2 C 2,1 C 97 % 15 lf 1002,0 hPa 0,0 l/m 0,00 h 0,30 h 0 W/m 16,1 km/h (3 Bft) 95,65 %
11.02.2016 03:00 3,4 C 3,3 C 2,2 C 97 % 15 lf 1002,3 hPa 0,0 l/m 0,00 h 0,00 h 0 W/m 16,6 km/h (3 Bft) 96,48 %
11.02.2016 04:00 3,5 C 3,3 C 2,1 C 97 % 15 lf 1002,4 hPa 0,0 l/m 0,00 h 0,00 h 0 W/m 18,5 km/h (3 Bft) 95,18 %
11.02.2016 05:00 3,2 C 3,1 C 2,0 C 97 % 15 lf 1002,7 hPa 0,0 l/m 0,00 h 0,13 h 0 W/m 18,4 km/h (3 Bft) 97,41 %
11.02.2016 06:00 3,2 C 2,9 C 1,8 C 97 % 15 lf 1002,9 hPa 0,0 l/m 0,00 h 0,00 h 0 W/m 17,5 km/h (3 Bft) 96,84 %
11.02.2016 07:00 2,8 C 2,5 C 1,4 C 96 % 15 lf 1003,2 hPa 0,0 l/m 0,00 h 0,03 h 6 W/m 15,3 km/h (3 Bft) 92,65 %
11.02.2016 08:00 2,5 C 2,5 C 1,4 C 96 % 15 lf 1003,7 hPa 0,0 l/m 0,50 h 0,23 h 37 W/m 14,6 km/h (3 Bft) 97,29 %
11.02.2016 09:00 2,9 C 4,7 C 2,1 C 97 % 15 lf 1004,2 hPa 0,0 l/m 0,90 h 0,03 h 129 W/m 17,7 km/h (3 Bft) 97,35 %
11.02.2016 10:00 4,1 C 9,9 C 3,6 C 97 % 2 lf 1004,4 hPa 0,0 l/m 0,83 h 0,00 h 227 W/m 20,3 km/h (4 Bft) 93,05 %
11.02.2016 11:00 5,1 C 11,0 C 4,8 C 93 % 0 lf 1004,7 hPa 0,0 l/m 0,77 h 0,00 h 301 W/m 21,9 km/h (4 Bft) 97,61 %
11.02.2016 12:00 6,3 C 10,5 C 5,6 C 85 % 0 lf 1004,6 hPa 0,0 l/m 0,53 h 0,00 h 248 W/m 25,0 km/h (4 Bft) 97,22 %
11.02.2016 13:00 6,6 C 10,0 C 5,5 C 82 % 0 lf 1004,3 hPa 0,0 l/m 0,57 h 0,00 h 237 W/m 23,4 km/h (4 Bft) 93,75 %
11.02.2016 14:00 6,8 C 9,4 C 5,8 C 81 % 0 lf 1004,1 hPa 0,0 l/m 0,50 h 0,00 h 185 W/m 19,2 km/h (3 Bft) 97,18 %
11.02.2016 15:00 6,7 C 7,9 C 5,6 C 80 % 0 lf 1004,1 hPa 0,0 l/m 0,17 h 0,00 h 114 W/m 16,3 km/h (3 Bft) 96,88 %
11.02.2016 16:00 6,6 C 7,3 C 5,0 C 79 % 0 lf 1004,1 hPa 0,0 l/m 0,73 h 0,00 h 79 W/m 10,8 km/h (2 Bft) 94,80 %
11.02.2016 17:00 5,9 C 5,0 C 3,2 C 81 % 0 lf 1004,2 hPa 0,0 l/m 0,40 h 0,00 h 18 W/m 6,9 km/h (2 Bft) 94,81 %
11.02.2016 18:00 4,7 C 4,2 C 2,0 C 84 % 0 lf 1004,3 hPa 0,0 l/m 0,00 h 0,00 h 0 W/m 6,2 km/h (2 Bft) 97,54 %
11.02.2016 19:00 4,3 C 4,3 C 2,6 C 87 % 0 lf 1004,4 hPa 0,0 l/m 0,00 h 0,00 h 0 W/m 8,5 km/h (2 Bft) 95,65 %
11.02.2016 20:00 3,9 C 2,9 C 1,3 C 88 % 0 lf 1004,4 hPa 0,0 l/m 0,00 h 0,00 h 0 W/m 5,7 km/h (1 Bft) 97,53 %
11.02.2016 21:00 3,2 C 2,6 C 1,2 C 90 % 0 lf 1004,6 hPa 0,0 l/m 0,00 h 0,00 h 0 W/m 8,3 km/h (2 Bft) 94,21 %
11.02.2016 22:00 3,0 C 3,3 C 2,1 C 92 % 0 lf 1004,6 hPa 0,0 l/m 0,00 h 0,00 h 0 W/m 9,2 km/h (2 Bft) 96,37 %
11.02.2016 23:00 3,2 C 3,3 C 2,2 C 93 % 0 lf 1004,2 hPa 0,0 l/m 0,00 h 0,00 h 0 W/m 5,9 km/h (2 Bft) 95,29 %
12.02.2016 00:00 3,3 C 3,8 C 2,2 C 93 % 0 lf 1004,1 hPa 0,0 l/m 0,00 h 0,00 h 0 W/m 8,9 km/h (2 Bft) 97,83 %
12.02.2016 01:00 3,4 C 3,9 C 2,4 C 92 % 0 lf 1003,7 hPa 0,0 l/m 0,00 h 0,00 h 0 W/m 12,4 km/h (3 Bft) 96,09 %
12.02.2016 02:00 3,4 C 3,4 C 2,1 C 91 % 0 lf 1003,5 hPa 0,0 l/m 0,00 h 0,17 h 0 W/m 10,3 km/h (2 Bft) 93,78 %
12.02.2016 03:00 3,2 C 3,3 C 2,2 C 92 % 0 lf 1003,2 hPa 0,0 l/m 0,00 h 0,00 h 0 W/m 7,5 km/h (2 Bft) 98,51 %
12.02.2016 04:00 3,2 C 3,3 C 2,2 C 93 % 0 lf 1002,7 hPa 0,0 l/m 0,00 h 0,00 h 0 W/m 8,4 km/h (2 Bft) 95,37 %
12.02.2016 05:00 3,2 C 3,3 C 2,2 C 93 % 0 lf 1002,4 hPa 0,0 l/m 0,00 h 0,00 h 0 W/m 6,7 km/h (2 Bft) 95,70 %
12.02.2016 06:00 3,0 C 3,1 C 1,7 C 93 % 0 lf 1001,9 hPa 0,0 l/m 0,00 h 0,00 h 0 W/m 7,3 km/h (2 Bft) 95,64 %
12.02.2016 07:00 2,7 C 3,2 C 1,7 C 93 % 0 lf 1001,6 hPa 0,0 l/m 0,00 h 0,00 h 6 W/m 7,9 km/h (2 Bft) 96,45 %
12.02.2016 08:00 2,7 C 3,2 C 1,9 C 93 % 0 lf 1001,2 hPa 0,0 l/m 0,00 h 0,00 h 22 W/m 11,6 km/h (2 Bft) 95,67 %
12.02.2016 09:00 3,0 C 5,0 C 2,8 C 91 % 0 lf 1000,7 hPa 0,0 l/m 0,40 h 0,00 h 135 W/m 19,2 km/h (3 Bft) 96,64 %
12.02.2016 10:00 4,8 C 9,0 C 4,2 C 84 % 0 lf 1000,1 hPa 0,0 l/m 1,00 h 0,00 h 333 W/m 25,5 km/h (4 Bft) 94,45 %
12.02.2016 11:00 5,4 C 9,3 C 4,4 C 79 % 0 lf 999,7 hPa 0,0 l/m 1,00 h 0,00 h 379 W/m 27,5 km/h (4 Bft) 97,88 %
12.02.2016 12:00 6,1 C 9,7 C 5,1 C 76 % 0 lf 999,1 hPa 0,0 l/m 0,70 h 0,00 h 322 W/m 25,9 km/h (4 Bft) 96,82 %
12.02.2016 13:00 5,6 C 7,5 C 4,8 C 76 % 0 lf 998,2 hPa 0,0 l/m 0,33 h 0,00 h 242 W/m 20,8 km/h (4 Bft) 94,55 %
12.02.2016 14:00 5,7 C 8,4 C 5,3 C 74 % 0 lf 997,3 hPa 0,0 l/m 0,53 h 0,00 h 272 W/m 19,8 km/h (3 Bft) 97,58 %
12.02.2016 15:00 6,1 C 8,1 C 4,9 C 69 % 0 lf 996,5 hPa 0,0 l/m 0,90 h 0,00 h 202 W/m 23,1 km/h (4 Bft) 95,24 %
12.02.2016 16:00 5,6 C 6,1 C 4,3 C 70 % 0 lf 996,2 hPa 0,0 l/m 0,23 h 0,00 h 72 W/m 19,9 km/h (4 Bft) 95,93 %
12.02.2016 17:00 5,0 C 5,1 C 3,9 C 71 % 0 lf 996,0 hPa 0,0 l/m 0,00 h 0,00 h 10 W/m 21,0 km/h (4 Bft) 95,97 %
12.02.2016 18:00 4,5 C 4,4 C 2,8 C 72 % 0 lf 996,0 hPa 0,0 l/m 0,00 h 0,00 h 0 W/m 19,0 km/h (3 Bft) 95,11 %
12.02.2016 19:00 3,5 C 2,6 C 1,0 C 76 % 0 lf 996,0 hPa 0,0 l/m 0,00 h 0,00 h 0 W/m 8,1 km/h (2 Bft) 94,63 %
12.02.2016 20:00 2,1 C 0,2 C -1,1 C 79 % 0 lf 996,0 hPa 0,0 l/m 0,00 h 0,00 h 0 W/m 4,9 km/h (1 Bft) 98,17 %
12.02.2016 21:00 0,7 C 0,2 C -1,6 C 83 % 0 lf 995,9 hPa 0,0 l/m 0,00 h 0,00 h 0 W/m 8,1 km/h (2 Bft) 97,01 %
12.02.2016 22:00 0,3 C 0,1 C -1,7 C 87 % 0 lf 995,7 hPa 0,0 l/m 0,00 h 0,00 h 0 W/m 9,2 km/h (2 Bft) 94,07 %
12.02.2016 23:00 -0,1 C -0,2 C -2,1 C 88 % 0 lf 995,5 hPa 0,0 l/m 0,00 h 0,00 h 0 W/m 7,8 km/h (2 Bft) 95,33 %
13.02.2016 00:00 -0,5 C -0,7 C -2,6 C 89 % 0 lf 995,5 hPa 0,0 l/m 0,00 h 0,00 h 0 W/m 7,9 km/h (2 Bft) 94,15 %
13.02.2016 01:00 -0,6 C -0,3 C -2,1 C 90 % 0 lf 995,3 hPa 0,0 l/m 0,00 h 0,00 h 0 W/m 8,5 km/h (2 Bft) 95,02 %
13.02.2016 02:00 -0,6 C -1,2 C -2,7 C 91 % 0 lf 994,9 hPa 0,0 l/m 0,00 h 0,00 h 0 W/m 6,5 km/h (2 Bft) 97,74 %
13.02.2016 03:00 -1,1 C -1,9 C -2,8 C 91 % 0 lf 994,5 hPa 0,0 l/m 0,00 h 0,00 h 0 W/m 3,4 km/h (1 Bft) 94,18 %
13.02.2016 04:00 -1,8 C -3,0 C -3,7 C 91 % 2 lf 994,0 hPa 0,0 l/m 0,00 h 0,00 h 0 W/m 0,0 km/h (0 Bft) 96,08 %
13.02.2016 05:00 -2,5 C -3,5 C -3,9 C 91 % 4 lf 993,7 hPa 0,0 l/m 0,00 h 0,00 h 0 W/m 0,7 km/h (0 Bft) 96,89 %
13.02.2016 06:00 -2,7 C -2,6 C -3,5 C 92 % 0 lf 993,3 hPa 0,0 l/m 0,00 h 0,00 h 0 W/m 3,1 km/h (1 Bft) 97,09 %
13.02.2016 07:00 -2,2 C -1,9 C -3,1 C 94 % 0 lf 992,9 hPa 0,0 l/m 0,00 h 0,00 h 7 W/m 6,2 km/h (2 Bft) 95,63 %
13.02.2016 08:00 -1,5 C -0,7 C -2,2 C 95 % 1 lf 992,5 hPa 0,0 l/m 0,77 h 0,00 h 55 W/m 10,4 km/h (2 Bft) 93,80 %
13.02.2016 09:00 -0,3 C 2,9 C -0,3 C 95 % 5 lf 991,9 hPa 0,0 l/m 1,00 h 0,00 h 166 W/m 13,8 km/h (3 Bft) 98,56 %
13.02.2016 10:00 1,5 C 3,6 C 1,4 C 92 % 1 lf 990,6 hPa 0,0 l/m 0,23 h 0,00 h 139 W/m 20,8 km/h (4 Bft) 94,95 %
13.02.2016 11:00 2,3 C 4,1 C 2,5 C 88 % 0 lf 990,1 hPa 0,0 l/m 0,17 h 0,00 h 171 W/m 19,1 km/h (3 Bft) 96,02 %
13.02.2016 12:00 3,3 C 4,9 C 3,4 C 84 % 0 lf 989,0 hPa 0,0 l/m 0,27 h 0,00 h 195 W/m 24,8 km/h (4 Bft) 97,94 %
13.02.2016 13:00 4,0 C 5,4 C 3,8 C 82 % 0 lf 987,7 hPa 0,0 l/m 0,23 h 0,00 h 172 W/m 23,6 km/h (4 Bft) 94,51 %
13.02.2016 14:00 4,6 C 5,1 C 3,7 C 81 % 0 lf 986,8 hPa 0,0 l/m 0,00 h 0,40 h 113 W/m 27,5 km/h (4 Bft) 97,30 %
13.02.2016 15:00 4,1 C 4,1 C 2,7 C 86 % 0 lf 986,0 hPa 0,2 l/m 0,00 h 0,50 h 65 W/m 24,3 km/h (4 Bft) 94,81 %
13.02.2016 16:00 3,5 C 2,9 C 1,8 C 90 % 9 lf 985,4 hPa 0,4 l/m 0,00 h 1,00 h 27 W/m 23,8 km/h (4 Bft) 93,82 %
13.02.2016 17:00 3,0 C 2,8 C 1,7 C 93 % 10 lf 984,8 hPa 0,6 l/m 0,00 h 1,00 h 12 W/m 23,0 km/h (4 Bft) 98,15 %
13.02.2016 18:00 2,8 C 2,8 C 1,4 C 94 % 11 lf 984,3 hPa 0,8 l/m 0,00 h 1,00 h 0 W/m 19,4 km/h (3 Bft) 96,51 %
13.02.2016 19:00 2,8 C 2,8 C 1,7 C 95 % 14 lf 983,7 hPa 0,8 l/m 0,00 h 1,00 h 0 W/m 18,2 km/h (3 Bft) 94,95 %
13.02.2016 20:00 2,9 C 2,8 C 1,7 C 96 % 15 lf 983,1 hPa 0,4 l/m 0,00 h 0,53 h 0 W/m 14,5 km/h (3 Bft) 95,37 %
13.02.2016 21:00 2,7 C 2,8 C 1,7 C 96 % 15 lf 982,7 hPa 0,8 l/m 0,00 h 0,90 h 0 W/m 14,8 km/h (3 Bft) 96,72 %
13.02.2016 22:00 2,7 C 2,8 C 1,7 C 97 % 15 lf 982,4 hPa 0,4 l/m 0,00 h 1,00 h 0 W/m 15,1 km/h (3 Bft) 96,02 %
13.02.2016 23:00 2,8 C 2,8 C 1,7 C 97 % 15 lf 982,2 hPa 0,4 l/m 0,00 h 0,83 h 0 W/m 14,6 km/h (3 Bft) 96,01 %
14.02.2016 00:00 2,8 C 2,8 C 1,7 C 97 % 15 lf 982,3 hPa 0,0 l/m 0,00 h 0,07 h 0 W/m 15,0 km/h (3 Bft) 94,96 %
14.02.2016 01:00 2,8 C 2,8 C 1,7 C 97 % 15 lf 982,4 hPa 0,0 l/m 0,00 h 0,00 h 0 W/m 10,8 km/h (2 Bft) 95,65 %
14.02.2016 02:00 2,8 C 2,8 C 1,7 C 97 % 15 lf 982,4 hPa 0,0 l/m 0,00 h 0,07 h 0 W/m 6,9 km/h (2 Bft) 97,37 %
14.02.2016 03:00 2,9 C 2,8 C 1,7 C 98 % 15 lf 982,5 hPa 0,0 l/m 0,00 h 0,00 h 0 W/m 4,2 km/h (1 Bft) 97,15 %
14.02.2016 04:00 2,8 C 2,8 C 1,7 C 98 % 15 lf 982,9 hPa 0,0 l/m 0,00 h 0,00 h 0 W/m 1,3 km/h (1 Bft) 94,73 %
14.02.2016 05:00 2,8 C 2,8 C 1,7 C 98 % 15 lf 983,2 hPa 0,0 l/m 0,00 h 0,20 h 0 W/m 4,3 km/h (1 Bft) 95,38 %
14.02.2016 06:00 2,8 C 2,8 C 1,7 C 98 % 15 lf 983,7 hPa 0,0 l/m 0,00 h 0,73 h 0 W/m 6,6 km/h (2 Bft) 98,01 %
14.02.2016 07:00 2,7 C 2,8 C 1,7 C 98 % 15 lf 984,2 hPa 0,0 l/m 0,00 h 0,83 h 3 W/m 9,6 km/h (2 Bft) 95,37 %
14.02.2016 08:00 2,6 C 2,8 C 1,7 C 98 % 15 lf 985,0 hPa 0,4 l/m 0,00 h 0,90 h 14 W/m 9,5 km/h (2 Bft) 96,22 %
14.02.2016 09:00 2,4 C 2,8 C 1,7 C 98 % 15 lf 985,7 hPa 0,2 l/m 0,00 h 0,90 h 42 W/m 9,1 km/h (2 Bft) 96,44 %
14.02.2016 10:00 2,5 C 3,1 C 1,8 C 98 % 15 lf 986,5 hPa 0,2 l/m 0,00 h 1,00 h 80 W/m 8,3 km/h (2 Bft) 94,65 %
14.02.2016 11:00 2,8 C 3,4 C 2,2 C 98 % 15 lf 987,1 hPa 0,2 l/m 0,00 h 0,93 h 89 W/m 11,0 km/h (2 Bft) 98,50 %
14.02.2016 12:00 2,7 C 3,4 C 2,0 C 98 % 15 lf 987,7 hPa 0,2 l/m 0,00 h 0,77 h 100 W/m 13,5 km/h (3 Bft) 95,58 %
14.02.2016 13:00 2,7 C 3,0 C 1,8 C 98 % 15 lf 988,6 hPa 0,0 l/m 0,00 h 1,00 h 58 W/m 11,4 km/h (2 Bft) 94,17 %
14.02.2016 14:00 2,5 C 2,9 C 1,8 C 97 % 15 lf 989,2 hPa 0,2 l/m 0,00 h 1,00 h 83 W/m 13,0 km/h (3 Bft) 97,36 %
14.02.2016 15:00 2,6 C 2,9 C 1,8 C 97 % 15 lf 990,0 hPa 0,2 l/m 0,00 h 0,63 h 51 W/m 12,6 km/h (3 Bft) 96,50 %
14.02.2016 16:00 2,5 C 2,7 C 1,4 C 97 % 15 lf 991,0 hPa 0,0 l/m 0,00 h 0,00 h 23 W/m 12,6 km/h (3 Bft) 95,80 %
14.02.2016 17:00 2,4 C 2,2 C 1,1 C 97 % 14 lf 992,0 hPa 0,0 l/m 0,00 h 0,07 h 8 W/m 11,1 km/h (2 Bft) 94,37 %
14.02.2016 18:00 2,1 C 2,0 C 1,0 C 96 % 13 lf 993,2 hPa 0,0 l/m 0,00 h 0,00 h 0 W/m 10,0 km/h (2 Bft) 97,45 %
14.02.2016 19:00 1,7 C 1,5 C 0,6 C 96 % 13 lf 994,2 hPa 0,0 l/m 0,00 h 0,00 h 0 W/m 12,6 km/h (3 Bft) 95,44 %
14.02.2016 20:00 1,3 C 1,1 C 0,2 C 96 % 12 lf 995,3 hPa 0,0 l/m 0,00 h 0,00 h 0 W/m 10,4 km/h (2 Bft) 97,01 %
14.02.2016 21:00 1,2 C 1,1 C 0,0 C 96 % 11 lf 996,5 hPa 0,0 l/m 0,00 h 0,00 h 0 W/m 10,3 km/h (2 Bft) 96,58 %
14.02.2016 22:00 1,1 C 1,1 C 0,0 C 96 % 10 lf 997,4 hPa 0,0 l/m 0,00 h 0,03 h 0 W/m 10,5 km/h (2 Bft) 94,31 %
14.02.2016 23:00 0,9 C 0,7 C -0,6 C 96 % 15 lf 998,3 hPa 0,2 l/m 0,00 h 0,63 h 0 W/m 9,4 km/h (2 Bft) 96,94 %
Min-Datum _ 13.02.16 13.02.16 13.02.16 12.02.16 08.02.16 09.02.16 - - - - 11.02.16 11.02.16
_ Min-Zeit 06:10 05:04 04:16 15:48 00:00 16:10 - - - - 20:18 00:02
Minimum _ -2,8 C -3,9 C -3,9 C 68 % 0 lf 974,4 hPa - - - - 0,0 km/h (0 Bft) 6,25 %
Max-Datum _ 08.02.16 10.02.16 08.02.16 14.02.16 08.02.16 11.02.16 09.02.16 08.02.16 08.02.16 12.02.16 08.02.16 08.02.16
_ Max-Zeit 12:44 14:04 12:08 02:28 05:14 11:26 12:00 10:16 02:02 13:36 20:38 01:34
Maximum _ 9,9 C 15,0 C 9,4 C 98 % 15 lf 1004,8 hPa 4,2 l/m 0,03 h 0,03 h 533 W/m 90,0 km/h
W-SW (10 Bft)
100,00 %
Durchschnitt _ 4,2 C 4,5 C 2,8 C 90 % 7 lf 993,5 hPa #32,8 l/m #17:58 h #47:56 h 101 W/m 21,9 km/h (4 Bft) 95,96 %
© 2016 W. Hausmann